Flight Track Log - Related Links

Times and Time Zones

All times are in EDT time to prevent confusion due to time zone crossing. See the N3133R flight status page for this flight to view local times or setup timezone preferences in your user account.

Time Position Orientation Groundspeed Altitude Reporting Facility
EDT Latitude Longitude Course Direction KTS MPH feet Rate Location/Type
Mon 05:12:05 PM 34.7306 -92.2269 23° Northeast 65 75 600  Level Memphis Center
Mon 05:13:18 PM 34.7536 -92.2150 23° Northeast 82 94 1,600 660 Climbing Memphis Center
Mon 05:15:25 PM 34.7936 -92.1981 19° North 76 87 2,800 593 Climbing Memphis Center
Mon 05:16:20 PM 34.8125 -92.1883 23° Northeast 82 94 3,400 678 Climbing Memphis Center
Mon 05:17:20 PM 34.8356 -92.1814 14° North 81 93 4,100 694 Climbing Memphis Center
Mon 05:18:21 PM 34.8567 -92.1692 25° Northeast 83 96 4,800 689 Climbing Memphis Center
Mon 05:19:22 PM 34.8817 -92.1594 18° North 86 99 5,500 709 Climbing Memphis Center
Mon 05:20:28 PM 34.9047 -92.1500 19° North 83 96 6,300 645 Climbing Memphis Center
Mon 05:21:23 PM 34.9239 -92.1403 23° Northeast 84 97 6,800 541 Climbing Memphis Center
Mon 05:22:30 PM 34.9511 -92.1281 20° North 91 105 7,400 520 Climbing Memphis Center
Mon 05:23:30 PM 34.9717 -92.1436 328° Northwest 104 120 7,900 313 Climbing Memphis Center
Mon 05:24:25 PM 34.9983 -92.1697 321° Northwest 124 143 8,000  Climbing Memphis Center
Mon 05:25:32 PM 35.0294 -92.1956 326° Northwest 133 153 7,900 -61 Descending Memphis Center
Mon 05:26:03 PM 35.0500 -92.2061 337° Northwest 133 153 7,900  Level Memphis Center
Mon 05:26:32 PM 35.0603 -92.2217 309° West 133 153 7,900  Level Memphis Center
Mon 05:27:03 PM 35.0789 -92.2322 335° Northwest 133 153 7,900  Level Memphis Center
Mon 05:27:27 PM 35.0872 -92.2400 323° Northwest 132 152 7,900  Level Memphis Center
Mon 05:28:03 PM 35.1097 -92.2558 330° Northwest 133 153 7,900  Level Memphis Center
Mon 05:28:21 PM 35.1181 -92.2636 323° Northwest 129 148 7,900  Level Memphis Center
Mon 05:29:03 PM 35.1386 -92.2767 333° Northwest 128 147 7,900  Level Memphis Center
Mon 05:30:03 PM 35.1694 -92.3028 325° Northwest 133 153 7,900  Level Memphis Center
Mon 05:31:03 PM 35.2006 -92.3264 328° Northwest 133 153 7,900 50 Level Memphis Center
Mon 05:32:03 PM 35.2314 -92.3500 328° Northwest 133 153 8,000  Climbing Memphis Center
Mon 05:33:03 PM 35.2644 -92.3736 330° Northwest 133 153 7,900 -50 Descending Memphis Center
Mon 05:34:03 PM 35.2953 -92.3972 328° Northwest 138 159 7,900  Level Memphis Center
Mon 05:35:03 PM 35.3261 -92.4211 328° Northwest 138 159 7,900 -50 Level Memphis Center
Mon 05:36:03 PM 35.3569 -92.4472 325° Northwest 138 159 7,800 -50 Descending Memphis Center
Mon 05:37:03 PM 35.3858 -92.4708 326° Northwest 138 159 7,800  Level Memphis Center
Mon 05:38:03 PM 35.4167 -92.4944 328° Northwest 133 153 7,800  Level Memphis Center
Mon 05:39:03 PM 35.4456 -92.5156 329° Northwest 128 147 7,800  Level Memphis Center
Mon 05:40:03 PM 35.4744 -92.5419 323° Northwest 128 147 7,800  Level Memphis Center
Mon 05:41:03 PM 35.5053 -92.5656 328° Northwest 123 142 7,800 50 Level Memphis Center
Mon 05:42:03 PM 35.5361 -92.5894 328° Northwest 123 142 7,900  Climbing Memphis Center
Mon 05:43:03 PM 35.5628 -92.6131 324° Northwest 123 142 7,800  Descending Memphis Center
Mon 05:44:03 PM 35.5917 -92.6344 329° Northwest 123 142 7,900  Climbing Memphis Center
Mon 05:45:03 PM 35.6225 -92.6581 328° Northwest 123 142 7,800 -50 Descending Memphis Center
Mon 05:46:03 PM 35.6511 -92.6794 329° Northwest 123 142 7,800  Level Memphis Center
Mon 05:47:04 PM 35.6800 -92.7033 326° Northwest 123 142 7,800 50 Level Memphis Center
Mon 05:48:04 PM 35.7086 -92.7269 326° Northwest 123 142 7,900 50 Climbing Memphis Center
Mon 05:49:04 PM 35.7394 -92.7508 328° Northwest 123 142 7,900 -150 Level Memphis Center
Mon 05:50:04 PM 35.7703 -92.7747 328° Northwest 123 142 7,600 -300 Descending Memphis Center
Mon 05:51:04 PM 35.8033 -92.7989 329° Northwest 128 147 7,300 -300 Descending Memphis Center
Mon 05:52:04 PM 35.8361 -92.8256 327° Northwest 128 147 7,000 -350 Descending Memphis Center
Mon 05:53:04 PM 35.8689 -92.8494 329° Northwest 134 154 6,600 -400 Descending Memphis Center
Mon 05:54:04 PM 35.9061 -92.8711 335° Northwest 139 160 6,200 -400 Descending Memphis Center
Mon 05:55:04 PM 35.9369 -92.8978 325° Northwest 139 160 5,800 -400 Descending Memphis Center
Mon 05:56:04 PM 35.9697 -92.9242 327° Northwest 139 160 5,400 -400 Descending Memphis Center
Mon 05:57:04 PM 36.0025 -92.9511 326° Northwest 139 160 5,000 -350 Descending Memphis Center
Mon 05:58:04 PM 36.0353 -92.9778 327° Northwest 139 160 4,700 -350 Descending Memphis Center
Mon 05:59:04 PM 36.0681 -93.0019 329° Northwest 139 160 4,300 -350 Descending Memphis Center
Mon 06:00:04 PM 36.0986 -93.0311 322° Northwest 144 166 4,000 -350 Descending Memphis Center
Mon 06:01:04 PM 36.1336 -93.0528 333° Northwest 144 166 3,600 -300 Descending Memphis Center
Mon 06:02:04 PM 36.1603 -93.0767 324° Northwest 144 166 3,400 -200 Descending Memphis Center

Login

Don't have an account? Register now (free) for customized features, flight alerts, and more!